Terminal Aerodrome Forecast
Issued by NWS

Home | Current Version | Previous Version | Graphics & Text | Print | Product List | Glossary On
Versions: 1 2 3 4 5 6 7 8 9 10 11 12 13 14 15
174
FTUS43 KICT 261125
TAFSLN
TAF
KSLN 261125Z 2612/2712 35016G24KT P6SM OVC015
     FM261600 34018G25KT P6SM SCT035 BKN150
     FM270000 33012KT P6SM SKC=

USA.gov is the U.S. government's official web portal to all federal, state and local government web resources and services.